createdAt,value
2022-11-08T00:01:57.522Z,1005.04
2022-11-08T00:04:30.255Z,1005.03
2022-11-08T00:07:03.314Z,1005.03
2022-11-08T00:09:36.367Z,1005.03
2022-11-08T00:12:09.254Z,1005.02
2022-11-08T00:14:42.283Z,1005.01
2022-11-08T00:17:15.281Z,1004.98
2022-11-08T00:19:47.981Z,1004.96
2022-11-08T00:22:21.263Z,1004.92
2022-11-08T00:24:54.328Z,1004.91
2022-11-08T00:27:27.258Z,1004.88
2022-11-08T00:30:00.188Z,1004.88
2022-11-08T00:32:33.267Z,1004.88
2022-11-08T00:35:06.280Z,1004.85
2022-11-08T00:37:39.290Z,1004.82
2022-11-08T00:40:12.266Z,1004.80
2022-11-08T00:42:45.325Z,1004.78
2022-11-08T00:45:18.278Z,1004.78
2022-11-08T00:47:51.359Z,1004.78
2022-11-08T00:50:24.345Z,1004.77
2022-11-08T00:52:57.392Z,1004.77
2022-11-08T00:55:30.392Z,1004.76
2022-11-08T00:58:03.417Z,1004.76
2022-11-08T01:00:36.132Z,1004.74
2022-11-08T01:03:09.355Z,1004.72
2022-11-08T01:05:42.374Z,1004.69
2022-11-08T01:08:15.589Z,1004.65
2022-11-08T01:10:48.304Z,1004.64
2022-11-08T01:13:21.455Z,1004.62
2022-11-08T01:15:54.410Z,1004.60
2022-11-08T01:18:27.439Z,1004.59
2022-11-08T01:21:00.409Z,1004.58
2022-11-08T01:23:33.398Z,1004.57
2022-11-08T01:26:06.241Z,1004.56
2022-11-08T01:28:39.365Z,1004.54
2022-11-08T01:31:12.381Z,1004.51
2022-11-08T01:33:50.849Z,1004.47
2022-11-08T01:36:18.384Z,1004.43
2022-11-08T01:38:51.449Z,1004.38
2022-11-08T01:41:24.442Z,1004.34
2022-11-08T01:43:57.515Z,1004.31
2022-11-08T01:46:30.432Z,1004.28
2022-11-08T01:49:03.462Z,1004.26
2022-11-08T01:51:36.474Z,1004.24
2022-11-08T01:54:09.400Z,1004.23
2022-11-08T01:56:42.438Z,1004.20
2022-11-08T01:59:15.374Z,1004.16
2022-11-08T02:01:48.552Z,1004.13
2022-11-08T02:04:21.396Z,1004.11
2022-11-08T02:06:54.517Z,1004.07
2022-11-08T02:09:27.387Z,1004.06
2022-11-08T02:12:00.506Z,1004.03
2022-11-08T02:14:33.416Z,1004.01
2022-11-08T02:17:06.529Z,1003.99
2022-11-08T02:19:39.298Z,1003.97
2022-11-08T02:22:12.467Z,1003.94
2022-11-08T02:24:45.538Z,1003.95
2022-11-08T02:27:18.502Z,1003.94
2022-11-08T02:29:51.536Z,1003.93
2022-11-08T02:32:24.493Z,1003.91
2022-11-08T02:34:57.536Z,1003.90
2022-11-08T02:37:30.427Z,1003.88
2022-11-08T02:40:03.519Z,1003.85
2022-11-08T02:42:36.555Z,1003.85
2022-11-08T02:45:09.508Z,1003.86
2022-11-08T02:47:56.494Z,1003.85
2022-11-08T02:50:29.464Z,1003.84
2022-11-08T02:53:02.555Z,1003.82
2022-11-08T02:55:35.216Z,1003.79
2022-11-08T02:58:08.530Z,1003.77
2022-11-08T03:00:41.292Z,1003.76
2022-11-08T03:03:14.569Z,1003.74
2022-11-08T03:05:47.649Z,1003.73
2022-11-08T03:08:21.142Z,1003.73
2022-11-08T03:10:53.493Z,1003.71
2022-11-08T03:13:26.584Z,1003.69
2022-11-08T03:15:59.550Z,1003.67
2022-11-08T03:18:32.591Z,1003.66
2022-11-08T03:21:05.587Z,1003.64
2022-11-08T03:23:38.534Z,1003.63
2022-11-08T03:26:11.593Z,1003.62
2022-11-08T03:28:44.579Z,1003.61
2022-11-08T03:31:17.518Z,1003.60
2022-11-08T03:33:50.600Z,1003.60
2022-11-08T03:36:23.539Z,1003.60
2022-11-08T03:38:56.676Z,1003.58
2022-11-08T03:41:29.481Z,1003.55
2022-11-08T03:44:02.606Z,1003.52
2022-11-08T03:46:35.646Z,1003.49
2022-11-08T03:49:08.569Z,1003.45
2022-11-08T03:51:41.630Z,1003.42
2022-11-08T03:54:14.561Z,1003.37
2022-11-08T03:56:47.639Z,1003.32
2022-11-08T03:59:20.612Z,1003.28
2022-11-08T04:01:53.830Z,1003.25
2022-11-08T04:04:26.617Z,1003.22
2022-11-08T04:06:59.613Z,1003.21
2022-11-08T04:09:32.701Z,1003.18
2022-11-08T04:12:05.596Z,1003.16
2022-11-08T04:14:38.648Z,1003.16
2022-11-08T04:17:11.689Z,1003.14
2022-11-08T04:19:44.532Z,1003.11
2022-11-08T04:22:17.604Z,1003.11
2022-11-08T04:24:50.739Z,1003.11
2022-11-08T04:27:23.697Z,1003.09
2022-11-08T04:29:56.685Z,1003.08
2022-11-08T04:32:29.711Z,1003.04
2022-11-08T04:35:02.511Z,1003.00
2022-11-08T04:37:35.717Z,1002.99
2022-11-08T04:40:08.687Z,1002.97
2022-11-08T04:42:41.637Z,1002.97
2022-11-08T04:45:14.631Z,1002.96
2022-11-08T04:47:48.577Z,1002.95
2022-11-08T04:50:20.682Z,1002.96
2022-11-08T04:52:53.726Z,1002.96
2022-11-08T04:55:26.532Z,1002.98
2022-11-08T04:57:59.679Z,1002.98
2022-11-08T05:00:32.761Z,1002.99
2022-11-08T05:03:05.740Z,1002.97
2022-11-08T05:05:38.377Z,1002.95
2022-11-08T05:08:11.400Z,1002.93
2022-11-08T05:10:44.389Z,1002.91
2022-11-08T05:13:17.528Z,1002.89
2022-11-08T05:15:50.771Z,1002.86
2022-11-08T05:18:23.558Z,1002.85
2022-11-08T05:20:56.468Z,1002.83
2022-11-08T05:23:35.735Z,1002.81
2022-11-08T05:26:08.776Z,1002.81
2022-11-08T05:28:41.787Z,1002.78
2022-11-08T05:31:14.746Z,1002.75
2022-11-08T05:33:47.792Z,1002.74
2022-11-08T05:36:20.703Z,1002.72
2022-11-08T05:38:53.713Z,1002.70
2022-11-08T05:41:26.673Z,1002.70
2022-11-08T05:43:59.440Z,1002.68
2022-11-08T05:46:38.764Z,1002.66
2022-11-08T05:49:11.692Z,1002.63
2022-11-08T05:51:58.336Z,1002.61
2022-11-08T05:54:31.427Z,1002.58
2022-11-08T05:57:04.467Z,1002.54
2022-11-08T05:59:37.766Z,1002.51
2022-11-08T06:02:11.043Z,1002.47
2022-11-08T06:04:43.631Z,1002.44
2022-11-08T06:07:19.714Z,1002.44
2022-11-08T06:09:52.759Z,1002.41
2022-11-08T06:12:25.612Z,1002.40
2022-11-08T06:14:58.638Z,1002.39
2022-11-08T06:17:31.655Z,1002.37
2022-11-08T06:20:04.839Z,1002.36
2022-11-08T06:22:51.533Z,1002.38
2022-11-08T06:25:24.748Z,1002.39
2022-11-08T06:27:57.588Z,1002.40
2022-11-08T06:30:30.679Z,1002.40
2022-11-08T06:33:04.246Z,1002.41
2022-11-08T06:35:37.918Z,1002.44
2022-11-08T06:38:10.781Z,1002.45
2022-11-08T06:40:43.882Z,1002.49
2022-11-08T06:43:19.879Z,1002.52
2022-11-08T06:45:49.890Z,1002.52
2022-11-08T06:48:22.892Z,1002.53
2022-11-08T06:50:55.831Z,1002.53
2022-11-08T06:53:28.922Z,1002.55
2022-11-08T06:56:01.888Z,1002.54
2022-11-08T06:58:34.968Z,1002.55
2022-11-08T07:01:08.083Z,1002.53
2022-11-08T07:03:54.868Z,1002.52
2022-11-08T07:06:27.825Z,1002.51
2022-11-08T07:09:00.848Z,1002.52
2022-11-08T07:11:33.945Z,1002.53
2022-11-08T07:14:06.971Z,1002.55
2022-11-08T07:16:39.868Z,1002.57
2022-11-08T07:19:12.839Z,1002.58
2022-11-08T07:21:45.941Z,1002.58
2022-11-08T07:24:24.784Z,1002.57
2022-11-08T07:26:57.918Z,1002.55
2022-11-08T07:29:31.012Z,1002.53
2022-11-08T07:32:04.068Z,1002.52
2022-11-08T07:34:37.867Z,1002.55
2022-11-08T07:37:10.975Z,1002.55
2022-11-08T07:39:43.934Z,1002.55
2022-11-08T07:42:16.934Z,1002.56
2022-11-08T07:44:49.966Z,1002.60
2022-11-08T07:47:23.030Z,1002.63
2022-11-08T07:49:55.951Z,1002.65
2022-11-08T07:52:29.004Z,1002.67
2022-11-08T07:55:01.957Z,1002.67
2022-11-08T07:57:35.077Z,1002.72
2022-11-08T08:00:08.998Z,1002.74
2022-11-08T08:02:42.055Z,1002.76
2022-11-08T08:05:14.946Z,1002.81
2022-11-08T08:07:47.962Z,1002.81
2022-11-08T08:10:34.702Z,1002.83
2022-11-08T08:13:08.003Z,1002.82
2022-11-08T08:15:40.998Z,1002.80
2022-11-08T08:18:13.916Z,1002.78
2022-11-08T08:20:47.071Z,1002.80
2022-11-08T08:23:20.290Z,1002.82
2022-11-08T08:25:52.977Z,1002.83
2022-11-08T08:28:26.069Z,1002.84
2022-11-08T08:30:59.046Z,1002.86
2022-11-08T08:33:32.061Z,1002.88
2022-11-08T08:36:05.014Z,1002.92
2022-11-08T08:38:44.091Z,1002.93
2022-11-08T08:41:10.971Z,1002.95
2022-11-08T08:43:44.088Z,1002.97
2022-11-08T08:46:17.084Z,1003.00
2022-11-08T08:48:50.076Z,1003.02
2022-11-08T08:51:22.999Z,1003.03
2022-11-08T08:54:09.924Z,1003.00
2022-11-08T08:56:43.124Z,1002.99
2022-11-08T09:01:49.006Z,1002.95
2022-11-08T09:04:22.008Z,1002.93
2022-11-08T09:06:55.055Z,1002.90
2022-11-08T09:09:28.114Z,1002.89
2022-11-08T09:12:01.125Z,1002.88
2022-11-08T09:14:34.001Z,1002.89
2022-11-08T09:17:07.124Z,1002.92
2022-11-08T09:19:40.048Z,1002.91
2022-11-08T09:22:13.136Z,1002.93
2022-11-08T09:25:00.024Z,1002.93
2022-11-08T09:27:33.121Z,1002.94
2022-11-08T09:30:06.063Z,1002.94
2022-11-08T09:32:59.565Z,1002.94
2022-11-08T09:35:12.120Z,1002.94
2022-11-08T09:37:48.665Z,1002.93
2022-11-08T09:40:18.192Z,1002.92
2022-11-08T09:42:54.097Z,1002.89
2022-11-08T09:45:27.187Z,1002.86
2022-11-08T09:48:01.269Z,1002.84
2022-11-08T09:50:33.182Z,1002.83
2022-11-08T09:53:06.171Z,1002.84
2022-11-08T09:55:39.173Z,1002.85
2022-11-08T09:58:12.107Z,1002.85
2022-11-08T10:00:45.191Z,1002.86
2022-11-08T10:03:18.409Z,1002.86
2022-11-08T10:05:51.093Z,1002.85
2022-11-08T10:08:24.147Z,1002.85
2022-11-08T10:10:57.333Z,1002.85
2022-11-08T10:13:31.198Z,1002.87
2022-11-08T10:16:04.249Z,1002.87
2022-11-08T10:18:37.232Z,1002.84
2022-11-08T10:21:10.180Z,1002.82
2022-11-08T10:23:43.226Z,1002.80
2022-11-08T10:26:16.151Z,1002.78
2022-11-08T10:28:49.257Z,1002.76
2022-11-08T10:31:22.122Z,1002.72
2022-11-08T10:33:55.231Z,1002.72
2022-11-08T10:36:28.156Z,1002.69
2022-11-08T10:39:01.274Z,1002.67
2022-11-08T10:41:34.195Z,1002.66
2022-11-08T10:44:07.296Z,1002.65
2022-11-08T10:46:40.151Z,1002.67
2022-11-08T10:49:13.162Z,1002.68
2022-11-08T10:51:46.268Z,1002.67
2022-11-08T10:54:19.140Z,1002.65
2022-11-08T10:56:52.166Z,1002.66
2022-11-08T10:59:25.192Z,1002.66
2022-11-08T11:01:58.340Z,1002.65
2022-11-08T11:04:31.246Z,1002.65
2022-11-08T11:07:04.306Z,1002.62
2022-11-08T11:09:37.278Z,1002.60
2022-11-08T11:12:10.311Z,1002.58
2022-11-08T11:14:43.238Z,1002.56
2022-11-08T11:17:16.373Z,1002.53
2022-11-08T11:20:03.220Z,1002.49
2022-11-08T11:22:36.394Z,1002.45
2022-11-08T11:25:10.251Z,1002.45
2022-11-08T11:27:43.345Z,1002.42
2022-11-08T11:30:16.344Z,1002.39
2022-11-08T11:32:49.380Z,1002.37
2022-11-08T11:35:22.289Z,1002.36
2022-11-08T11:37:55.327Z,1002.35
2022-11-08T11:40:28.224Z,1002.32
2022-11-08T11:43:01.335Z,1002.29
2022-11-08T11:45:34.275Z,1002.26
2022-11-08T11:48:07.235Z,1002.26
2022-11-08T11:50:40.120Z,1002.24
2022-11-08T11:53:13.326Z,1002.22
2022-11-08T11:55:46.366Z,1002.21
2022-11-08T11:58:19.704Z,1002.20
2022-11-08T12:00:52.379Z,1002.20
2022-11-08T12:03:25.317Z,1002.18
2022-11-08T12:05:58.431Z,1002.16
2022-11-08T12:08:31.312Z,1002.15
2022-11-08T12:11:04.406Z,1002.14
2022-11-08T12:13:37.285Z,1002.12
2022-11-08T12:16:10.421Z,1002.11
2022-11-08T12:18:44.494Z,1002.09
2022-11-08T12:21:19.381Z,1002.06
2022-11-08T12:23:52.327Z,1002.04
2022-11-08T12:26:25.108Z,1002.02
2022-11-08T12:28:58.360Z,1001.98
2022-11-08T12:31:31.403Z,1001.98
2022-11-08T12:34:04.374Z,1001.97
2022-11-08T12:36:37.361Z,1001.96
2022-11-08T12:39:10.029Z,1001.94
2022-11-08T12:41:43.174Z,1001.92
2022-11-08T12:44:16.387Z,1001.87
2022-11-08T12:46:49.207Z,1001.84
2022-11-08T12:49:22.328Z,1001.82
2022-11-08T12:51:55.528Z,1001.80
2022-11-08T12:54:28.359Z,1001.79
2022-11-08T12:57:01.446Z,1001.78
2022-11-08T12:59:34.512Z,1001.77
2022-11-08T13:02:07.473Z,1001.75
2022-11-08T13:04:40.362Z,1001.73
2022-11-08T13:07:13.589Z,1001.72
2022-11-08T13:09:46.419Z,1001.70
2022-11-08T13:12:19.464Z,1001.68
2022-11-08T13:14:52.418Z,1001.65
2022-11-08T13:17:25.469Z,1001.63
2022-11-08T13:20:03.399Z,1001.62
2022-11-08T13:22:31.170Z,1001.58
2022-11-08T13:25:04.237Z,1001.55
2022-11-08T13:27:37.165Z,1001.52
2022-11-08T13:30:10.503Z,1001.49
2022-11-08T13:32:43.405Z,1001.48
2022-11-08T13:35:16.412Z,1001.49
2022-11-08T13:37:49.450Z,1001.49
2022-11-08T13:40:22.415Z,1001.49
2022-11-08T13:42:55.418Z,1001.48
2022-11-08T13:45:28.431Z,1001.49
2022-11-08T13:48:01.416Z,1001.47
2022-11-08T13:50:34.175Z,1001.46
2022-11-08T13:53:07.318Z,1001.45
2022-11-08T13:55:40.488Z,1001.45
2022-11-08T13:58:13.230Z,1001.46
2022-11-08T14:00:46.307Z,1001.44
2022-11-08T14:03:19.985Z,1001.44
2022-11-08T14:05:52.489Z,1001.44
2022-11-08T14:08:25.491Z,1001.42
2022-11-08T14:10:58.452Z,1001.40
2022-11-08T14:13:33.006Z,1001.38
2022-11-08T14:16:08.903Z,1001.35
2022-11-08T14:18:42.560Z,1001.33
2022-11-08T14:21:15.236Z,1001.28
2022-11-08T14:23:48.599Z,1001.25
2022-11-08T14:26:24.205Z,1001.23
2022-11-08T14:28:57.262Z,1001.23
2022-11-08T14:31:30.369Z,1001.22
2022-11-08T14:34:03.551Z,1001.21
2022-11-08T14:36:36.352Z,1001.22
2022-11-08T14:39:09.623Z,1001.20
2022-11-08T14:41:42.354Z,1001.18
2022-11-08T14:44:15.539Z,1001.17
2022-11-08T14:46:48.609Z,1001.16
2022-11-08T14:49:21.657Z,1001.17
2022-11-08T14:51:54.583Z,1001.15
2022-11-08T14:54:27.659Z,1001.15
2022-11-08T14:57:00.583Z,1001.15
2022-11-08T14:59:33.411Z,1001.16
2022-11-08T15:02:06.653Z,1001.15
2022-11-08T15:04:39.267Z,1001.13
2022-11-08T15:07:12.532Z,1001.09
2022-11-08T15:09:45.440Z,1001.04
2022-11-08T15:12:18.350Z,1001.01
2022-11-08T15:14:51.660Z,1000.98
2022-11-08T15:17:24.333Z,1000.94
2022-11-08T15:19:57.461Z,1000.92
2022-11-08T15:22:30.320Z,1000.90
2022-11-08T15:25:03.551Z,1000.89
2022-11-08T15:27:36.556Z,1000.90
2022-11-08T15:30:09.676Z,1000.90
2022-11-08T15:32:42.567Z,1000.91
2022-11-08T15:35:15.703Z,1000.91
2022-11-08T15:37:48.689Z,1000.92
2022-11-08T15:40:21.690Z,1000.92
2022-11-08T15:42:54.622Z,1000.91
2022-11-08T15:45:27.702Z,1000.91
2022-11-08T15:48:00.631Z,1000.91
2022-11-08T15:50:33.710Z,1000.91
2022-11-08T15:53:20.584Z,1000.92
2022-11-08T15:55:53.409Z,1000.93
2022-11-08T15:58:26.659Z,1000.93
2022-11-08T16:00:59.515Z,1000.92
2022-11-08T16:03:36.519Z,1000.88
2022-11-08T16:06:09.353Z,1000.88
2022-11-08T16:08:42.739Z,1000.87
2022-11-08T16:11:21.483Z,1000.86
2022-11-08T16:13:54.720Z,1000.86
2022-11-08T16:16:31.258Z,1000.84
2022-11-08T16:19:06.733Z,1000.83
2022-11-08T16:21:39.765Z,1000.79
2022-11-08T16:24:12.650Z,1000.76
2022-11-08T16:26:45.739Z,1000.74
2022-11-08T16:29:18.675Z,1000.72
2022-11-08T16:31:51.742Z,1000.71
2022-11-08T16:34:24.760Z,1000.71
2022-11-08T16:36:57.779Z,1000.71
2022-11-08T16:39:30.789Z,1000.72
2022-11-08T16:42:03.813Z,1000.72
2022-11-08T16:44:36.481Z,1000.72
2022-11-08T16:47:09.392Z,1000.73
2022-11-08T16:49:43.876Z,1000.76
2022-11-08T16:52:15.716Z,1000.77
2022-11-08T16:54:48.514Z,1000.77
2022-11-08T16:57:34.292Z,1000.76
2022-11-08T16:59:54.549Z,1000.76
2022-11-08T17:02:27.576Z,1000.76
2022-11-08T17:05:00.655Z,1000.78
2022-11-08T17:07:33.474Z,1000.79
2022-11-08T17:10:06.578Z,1000.81
2022-11-08T17:12:39.643Z,1000.82
2022-11-08T17:15:12.449Z,1000.85
2022-11-08T17:17:45.659Z,1000.85
2022-11-08T17:20:18.505Z,1000.85
2022-11-08T17:22:54.537Z,1000.86
2022-11-08T17:25:28.241Z,1000.87
2022-11-08T17:28:01.791Z,1000.88
2022-11-08T17:30:34.639Z,1000.88
2022-11-08T17:33:07.805Z,1000.88
2022-11-08T17:35:43.968Z,1000.89
2022-11-08T17:38:13.804Z,1000.90
2022-11-08T17:40:46.682Z,1000.89
2022-11-08T17:43:33.822Z,1000.88
2022-11-08T17:46:06.701Z,1000.90
2022-11-08T17:48:39.804Z,1000.91
2022-11-08T17:51:12.805Z,1000.91
2022-11-08T17:53:45.906Z,1000.89
2022-11-08T17:56:18.782Z,1000.89
2022-11-08T17:58:51.832Z,1000.90
2022-11-08T18:01:24.615Z,1000.90
2022-11-08T18:03:57.546Z,1000.90
2022-11-08T18:06:30.682Z,1000.91
2022-11-08T18:09:03.551Z,1000.94
2022-11-08T18:11:36.674Z,1000.98
2022-11-08T18:14:09.769Z,1001.00
2022-11-08T18:16:42.572Z,1001.00
2022-11-08T18:19:15.548Z,1001.01
2022-11-08T18:21:48.691Z,1001.01
2022-11-08T18:24:21.848Z,1001.01
2022-11-08T18:26:54.870Z,1001.02
2022-11-08T18:29:28.005Z,1001.02
2022-11-08T18:32:00.749Z,1001.01
2022-11-08T18:34:33.764Z,1001.00
2022-11-08T18:37:06.571Z,1000.99
2022-11-08T18:39:39.693Z,1000.97
2022-11-08T18:42:12.599Z,1000.98
2022-11-08T18:44:45.775Z,1000.97
2022-11-08T18:47:32.831Z,1000.96
2022-11-08T18:50:05.756Z,1000.96
2022-11-08T18:52:38.899Z,1000.96
2022-11-08T18:55:11.912Z,1000.96
2022-11-08T18:57:44.682Z,1000.96
2022-11-08T19:00:17.712Z,1000.96
2022-11-08T19:02:50.747Z,1000.95
2022-11-08T19:05:23.695Z,1000.94
2022-11-08T19:07:56.777Z,1000.93
2022-11-08T19:10:29.816Z,1000.92
2022-11-08T19:13:02.859Z,1000.92
2022-11-08T19:15:35.703Z,1000.90
2022-11-08T19:18:08.777Z,1000.89
2022-11-08T19:20:41.817Z,1000.89
2022-11-08T19:23:14.641Z,1000.91
2022-11-08T19:25:47.820Z,1000.91
2022-11-08T19:28:34.671Z,1000.91
2022-11-08T19:31:07.870Z,1000.93
2022-11-08T19:33:40.700Z,1000.95
2022-11-08T19:36:13.672Z,1000.97
2022-11-08T19:38:46.887Z,1000.99
2022-11-08T19:41:19.819Z,1000.99
2022-11-08T19:43:52.869Z,1001.00
2022-11-08T19:46:26.088Z,1001.00
2022-11-08T19:48:58.788Z,1001.00
2022-11-08T19:51:31.863Z,1000.99
2022-11-08T19:54:04.845Z,1000.96
2022-11-08T19:57:09.803Z,1000.93
2022-11-08T19:59:12.683Z,1000.93
2022-11-08T20:01:45.922Z,1000.93
2022-11-08T20:04:18.842Z,1000.92
2022-11-08T20:06:51.904Z,1000.91
2022-11-08T20:09:30.192Z,1000.90
2022-11-08T20:11:57.855Z,1000.90
2022-11-08T20:14:30.894Z,1000.90
2022-11-08T20:17:03.824Z,1000.91
2022-11-08T20:19:36.921Z,1000.92
2022-11-08T20:22:10.009Z,1000.96
2022-11-08T20:24:42.996Z,1000.99
2022-11-08T20:27:15.741Z,1001.01
2022-11-08T20:29:48.853Z,1001.03
2022-11-08T20:32:24.675Z,1001.03
2022-11-08T20:34:58.702Z,1001.03
2022-11-08T20:37:30.953Z,1001.01
2022-11-08T20:40:04.033Z,1001.04
2022-11-08T20:42:36.840Z,1001.03
2022-11-08T20:45:14.740Z,1001.03
2022-11-08T20:47:42.849Z,1001.03
2022-11-08T20:50:15.831Z,1001.06
2022-11-08T20:52:49.092Z,1001.11
2022-11-08T20:55:21.963Z,1001.13
2022-11-08T20:57:55.096Z,1001.18
2022-11-08T21:00:52.114Z,1001.21
2022-11-08T21:03:00.887Z,1001.26
2022-11-08T21:05:34.109Z,1001.29
2022-11-08T21:08:57.309Z,1001.31
2022-11-08T21:10:43.273Z,1001.33
2022-11-08T21:13:13.105Z,1001.34
2022-11-08T21:15:46.208Z,1001.35
2022-11-08T21:18:19.622Z,1001.36
2022-11-08T21:20:51.916Z,1001.35
2022-11-08T21:23:25.263Z,1001.35
2022-11-08T21:25:58.222Z,1001.35
2022-11-08T21:28:30.842Z,1001.36
2022-11-08T21:31:03.996Z,1001.35
2022-11-08T21:33:37.236Z,1001.34
2022-11-08T21:36:09.829Z,1001.34
2022-11-08T21:38:42.898Z,1001.35
2022-11-08T21:41:16.169Z,1001.36
2022-11-08T21:43:49.198Z,1001.36
2022-11-08T21:46:22.168Z,1001.35
2022-11-08T21:48:55.258Z,1001.33
2022-11-08T21:51:28.172Z,1001.31
2022-11-08T21:54:01.177Z,1001.28
2022-11-08T21:56:34.170Z,1001.28
2022-11-08T21:59:07.203Z,1001.26
2022-11-08T22:01:40.165Z,1001.24
2022-11-08T22:04:13.223Z,1001.23
2022-11-08T22:06:47.779Z,1001.22
2022-11-08T22:09:19.177Z,1001.22
2022-11-08T22:11:52.292Z,1001.25
2022-11-08T22:14:25.269Z,1001.29
2022-11-08T22:16:58.267Z,1001.34
2022-11-08T22:19:31.207Z,1001.35
2022-11-08T22:22:04.289Z,1001.36
2022-11-08T22:24:37.277Z,1001.36
2022-11-08T22:27:10.280Z,1001.38
2022-11-08T22:29:43.209Z,1001.37
2022-11-08T22:32:16.212Z,1001.39
2022-11-08T22:34:49.273Z,1001.42
2022-11-08T22:37:22.209Z,1001.42
2022-11-08T22:39:55.035Z,1001.42
2022-11-08T22:42:28.281Z,1001.43
2022-11-08T22:45:01.227Z,1001.43
2022-11-08T22:47:34.328Z,1001.43
2022-11-08T22:50:07.312Z,1001.42
2022-11-08T22:52:40.343Z,1001.41
2022-11-08T22:55:13.326Z,1001.40
2022-11-08T22:57:46.245Z,1001.39
2022-11-08T23:00:19.364Z,1001.38
2022-11-08T23:02:52.318Z,1001.37
2022-11-08T23:05:25.252Z,1001.33
2022-11-08T23:07:58.270Z,1001.30
2022-11-08T23:10:31.278Z,1001.25
2022-11-08T23:13:04.325Z,1001.21
2022-11-08T23:15:37.432Z,1001.17
2022-11-08T23:18:10.356Z,1001.14
2022-11-08T23:20:43.338Z,1001.12
2022-11-08T23:23:16.600Z,1001.12
2022-11-08T23:25:49.308Z,1001.12
2022-11-08T23:28:22.336Z,1001.13
2022-11-08T23:30:55.308Z,1001.14
2022-11-08T23:33:28.296Z,1001.15
2022-11-08T23:36:15.340Z,1001.13
2022-11-08T23:38:48.408Z,1001.10
2022-11-08T23:41:21.345Z,1001.09
2022-11-08T23:43:54.338Z,1001.05
2022-11-08T23:46:27.295Z,1001.03
2022-11-08T23:49:00.429Z,1001.02
2022-11-08T23:51:33.361Z,1001.02
2022-11-08T23:54:06.322Z,1001.04
2022-11-08T23:56:39.321Z,1001.04
2022-11-08T23:59:12.326Z,1001.06
